sensor_id;sensor_type;location;lat;lon;timestamp;pressure;altitude;pressure_sealevel;temperature
19568;BMP280;9930;49.240;8.548;2022-11-15T00:02:15;100241.44;;;12.88
19568;BMP280;9930;49.240;8.548;2022-11-15T00:04:45;100246.66;;;12.91
19568;BMP280;9930;49.240;8.548;2022-11-15T00:07:15;100242.41;;;12.92
19568;BMP280;9930;49.240;8.548;2022-11-15T00:09:45;100250.91;;;12.91
19568;BMP280;9930;49.240;8.548;2022-11-15T00:12:15;100227.72;;;12.85
19568;BMP280;9930;49.240;8.548;2022-11-15T00:14:45;100238.13;;;12.92
19568;BMP280;9930;49.240;8.548;2022-11-15T00:17:18;100233.94;;;12.94
19568;BMP280;9930;49.240;8.548;2022-11-15T00:19:45;100236.47;;;12.94
19568;BMP280;9930;49.240;8.548;2022-11-15T00:22:19;100230.53;;;12.95
19568;BMP280;9930;49.240;8.548;2022-11-15T00:24:45;100224.56;;;12.95
19568;BMP280;9930;49.240;8.548;2022-11-15T00:27:14;100217.66;;;12.92
19568;BMP280;9930;49.240;8.548;2022-11-15T00:29:43;100222.94;;;12.98
19568;BMP280;9930;49.240;8.548;2022-11-15T00:32:14;100221.28;;;13.01
19568;BMP280;9930;49.240;8.548;2022-11-15T00:34:40;100215.19;;;12.95
19568;BMP280;9930;49.240;8.548;2022-11-15T00:37:09;100210.06;;;12.95
19568;BMP280;9930;49.240;8.548;2022-11-15T00:39:37;100219.53;;;13.00
19568;BMP280;9930;49.240;8.548;2022-11-15T00:42:05;100219.53;;;13.00
19568;BMP280;9930;49.240;8.548;2022-11-15T00:44:31;100216.94;;;12.98
19568;BMP280;9930;49.240;8.548;2022-11-15T00:46:56;100205.81;;;12.96
19568;BMP280;9930;49.240;8.548;2022-11-15T00:49:22;100207.56;;;12.98
19568;BMP280;9930;49.240;8.548;2022-11-15T00:51:48;100217.94;;;13.03
19568;BMP280;9930;49.240;8.548;2022-11-15T00:54:15;100202.59;;;13.05
19568;BMP280;9930;49.240;8.548;2022-11-15T00:56:47;100204.28;;;13.04
19568;BMP280;9930;49.240;8.548;2022-11-15T00:59:15;100206.84;;;13.04
19568;BMP280;9930;49.240;8.548;2022-11-15T01:01:45;100211.13;;;13.04
19568;BMP280;9930;49.240;8.548;2022-11-15T01:04:15;100199.91;;;12.98
19568;BMP280;9930;49.240;8.548;2022-11-15T01:06:45;100220.53;;;13.05
19568;BMP280;9930;49.240;8.548;2022-11-15T01:09:16;100215.44;;;13.06
19568;BMP280;9930;49.240;8.548;2022-11-15T01:11:45;100211.19;;;13.07
19568;BMP280;9930;49.240;8.548;2022-11-15T01:14:15;100204.34;;;13.06
19568;BMP280;9930;49.240;8.548;2022-11-15T01:16:45;100192.28;;;13.02
19568;BMP280;9930;49.240;8.548;2022-11-15T01:19:15;100203.47;;;13.05
19568;BMP280;9930;49.240;8.548;2022-11-15T01:21:45;100189.63;;;12.97
19568;BMP280;9930;49.240;8.548;2022-11-15T01:24:15;100190.56;;;13.01
19568;BMP280;9930;49.240;8.548;2022-11-15T01:26:44;100198.22;;;13.01
19568;BMP280;9930;49.240;8.548;2022-11-15T01:29:12;100193.03;;;12.97
19568;BMP280;9930;49.240;8.548;2022-11-15T01:31:54;100179.22;;;12.91
19568;BMP280;9930;49.240;8.548;2022-11-15T01:34:20;100184.34;;;12.91
19568;BMP280;9930;49.240;8.548;2022-11-15T01:36:48;100181.78;;;12.91
19568;BMP280;9930;49.240;8.548;2022-11-15T01:39:15;100174.94;;;12.90
19568;BMP280;9930;49.240;8.548;2022-11-15T01:41:45;100176.63;;;12.89
19568;BMP280;9930;49.240;8.548;2022-11-15T01:44:48;100173.09;;;12.84
19568;BMP280;9930;49.240;8.548;2022-11-15T01:47:21;100170.47;;;12.81
19568;BMP280;9930;49.240;8.548;2022-11-15T01:50:14;100160.03;;;12.74
19568;BMP280;9930;49.240;8.548;2022-11-15T01:52:46;100161.78;;;12.75
19568;BMP280;9930;49.240;8.548;2022-11-15T01:55:26;100154.88;;;12.72
19568;BMP280;9930;49.240;8.548;2022-11-15T01:57:58;100165.31;;;12.80
19568;BMP280;9930;49.240;8.548;2022-11-15T02:00:25;100158.34;;;12.74
19568;BMP280;9930;49.240;8.548;2022-11-15T02:02:51;100153.25;;;12.76
19568;BMP280;9930;49.240;8.548;2022-11-15T02:05:19;100166.16;;;12.80
19568;BMP280;9930;49.240;8.548;2022-11-15T02:07:46;100160.25;;;12.83
19568;BMP280;9930;49.240;8.548;2022-11-15T02:10:25;100143.09;;;12.79
19568;BMP280;9930;49.240;8.548;2022-11-15T02:12:52;100143.13;;;12.80
19568;BMP280;9930;49.240;8.548;2022-11-15T02:15:19;100147.66;;;12.90
19568;BMP280;9930;49.240;8.548;2022-11-15T02:18:18;100134.81;;;12.89
19568;BMP280;9930;49.240;8.548;2022-11-15T02:24:20;100133.25;;;12.95
19568;BMP280;9930;49.240;8.548;2022-11-15T02:32:52;100111.09;;;12.96
19568;BMP280;9930;49.240;8.548;2022-11-15T02:35:57;100105.91;;;12.93
19568;BMP280;9930;49.240;8.548;2022-11-15T02:38:54;100111.13;;;12.97
19568;BMP280;9930;49.240;8.548;2022-11-15T02:42:02;100103.31;;;12.91
19568;BMP280;9930;49.240;8.548;2022-11-15T02:44:45;100113.72;;;12.99
19568;BMP280;9930;49.240;8.548;2022-11-15T02:47:16;100087.03;;;12.89
19568;BMP280;9930;49.240;8.548;2022-11-15T02:49:52;100103.47;;;12.99
19568;BMP280;9930;49.240;8.548;2022-11-15T02:52:24;100103.50;;;13.01
19568;BMP280;9930;49.240;8.548;2022-11-15T02:54:55;100093.13;;;12.94
19568;BMP280;9930;49.240;8.548;2022-11-15T02:57:52;100098.44;;;13.02
19568;BMP280;9930;49.240;8.548;2022-11-15T03:00:21;100084.59;;;12.94
19568;BMP280;9930;49.240;8.548;2022-11-15T03:05:47;100096.78;;;13.04
19568;BMP280;9930;49.240;8.548;2022-11-15T03:08:36;100084.72;;;13.00
19568;BMP280;9930;49.240;8.548;2022-11-15T03:11:22;100087.41;;;13.05
19568;BMP280;9930;49.240;8.548;2022-11-15T03:14:00;100093.34;;;13.04
19568;BMP280;9930;49.240;8.548;2022-11-15T03:16:37;100089.06;;;13.03
19568;BMP280;9930;49.240;8.548;2022-11-15T03:21:47;100077.00;;;12.98
19568;BMP280;9930;49.240;8.548;2022-11-15T03:24:20;100075.25;;;12.96
19568;BMP280;9930;49.240;8.548;2022-11-15T03:26:49;100087.41;;;13.05
19568;BMP280;9930;49.240;8.548;2022-11-15T03:29:27;100072.78;;;13.01
19568;BMP280;9930;49.240;8.548;2022-11-15T03:32:12;100075.44;;;13.04
19568;BMP280;9930;49.240;8.548;2022-11-15T03:34:52;100082.41;;;13.11
19568;BMP280;9930;49.240;8.548;2022-11-15T03:37:24;100084.16;;;13.13
19568;BMP280;9930;49.240;8.548;2022-11-15T03:39:55;100079.91;;;13.14
19568;BMP280;9930;49.240;8.548;2022-11-15T03:42:49;100070.56;;;13.16
19568;BMP280;9930;49.240;8.548;2022-11-15T03:45:33;100071.53;;;13.19
19568;BMP280;9930;49.240;8.548;2022-11-15T03:48:09;100074.09;;;13.19
19568;BMP280;9930;49.240;8.548;2022-11-15T03:50:47;100074.09;;;13.19
19568;BMP280;9930;49.240;8.548;2022-11-15T03:53:16;100076.72;;;13.22
19568;BMP280;9930;49.240;8.548;2022-11-15T03:55:45;100081.91;;;13.25
19568;BMP280;9930;49.240;8.548;2022-11-15T03:58:18;100079.41;;;13.28
19568;BMP280;9930;49.240;8.548;2022-11-15T04:00:50;100070.91;;;13.29
19568;BMP280;9930;49.240;8.548;2022-11-15T04:03:16;100046.03;;;13.24
19568;BMP280;9930;49.240;8.548;2022-11-15T04:05:45;100055.47;;;13.26
19568;BMP280;9930;49.240;8.548;2022-11-15T04:08:15;100059.00;;;13.32
19568;BMP280;9930;49.240;8.548;2022-11-15T04:10:50;100066.66;;;13.32
19568;BMP280;9930;49.240;8.548;2022-11-15T04:13:16;100065.78;;;13.29
19568;BMP280;9930;49.240;8.548;2022-11-15T04:15:45;100071.91;;;13.36
19568;BMP280;9930;49.240;8.548;2022-11-15T04:18:17;100077.91;;;13.38
19568;BMP280;9930;49.240;8.548;2022-11-15T04:20:45;100071.81;;;13.33
19568;BMP280;9930;49.240;8.548;2022-11-15T04:23:32;100065.03;;;13.35
19568;BMP280;9930;49.240;8.548;2022-11-15T04:26:23;100077.09;;;13.41
19568;BMP280;9930;49.240;8.548;2022-11-15T04:28:49;100062.44;;;13.34
19568;BMP280;9930;49.240;8.548;2022-11-15T04:31:33;100057.41;;;13.38
19568;BMP280;9930;49.240;8.548;2022-11-15T04:33:58;100064.38;;;13.44
19568;BMP280;9930;49.240;8.548;2022-11-15T04:36:24;100067.78;;;13.44
19568;BMP280;9930;49.240;8.548;2022-11-15T04:39:14;100044.66;;;13.40
19568;BMP280;9930;49.240;8.548;2022-11-15T04:41:45;100057.53;;;13.44
19568;BMP280;9930;49.240;8.548;2022-11-15T04:44:15;100043.81;;;13.41
19568;BMP280;9930;49.240;8.548;2022-11-15T04:46:45;100049.06;;;13.47
19568;BMP280;9930;49.240;8.548;2022-11-15T04:49:15;100040.53;;;13.48
19568;BMP280;9930;49.240;8.548;2022-11-15T04:51:45;100049.09;;;13.48
19568;BMP280;9930;49.240;8.548;2022-11-15T04:54:15;100044.00;;;13.50
19568;BMP280;9930;49.240;8.548;2022-11-15T04:56:49;100028.50;;;13.44
19568;BMP280;9930;49.240;8.548;2022-11-15T04:59:16;100045.66;;;13.48
19568;BMP280;9930;49.240;8.548;2022-11-15T05:01:46;100039.69;;;13.47
19568;BMP280;9930;49.240;8.548;2022-11-15T05:04:16;100043.06;;;13.46
19568;BMP280;9930;49.240;8.548;2022-11-15T05:06:49;100049.09;;;13.48
19568;BMP280;9930;49.240;8.548;2022-11-15T05:09:18;100047.28;;;13.44
19568;BMP280;9930;49.240;8.548;2022-11-15T05:11:46;100051.63;;;13.47
19568;BMP280;9930;49.240;8.548;2022-11-15T05:14:15;100049.09;;;13.48
19568;BMP280;9930;49.240;8.548;2022-11-15T05:16:45;100043.84;;;13.42
19568;BMP280;9930;49.240;8.548;2022-11-15T05:19:13;100049.09;;;13.48
19568;BMP280;9930;49.240;8.548;2022-11-15T05:21:45;100035.34;;;13.45
19568;BMP280;9930;49.240;8.548;2022-11-15T05:24:17;100032.03;;;13.50
19568;BMP280;9930;49.240;8.548;2022-11-15T05:26:47;100028.53;;;13.45
19568;BMP280;9930;49.240;8.548;2022-11-15T05:29:15;100043.16;;;13.51
19568;BMP280;9930;49.240;8.548;2022-11-15T05:31:44;100038.91;;;13.51
19568;BMP280;9930;49.240;8.548;2022-11-15T05:34:14;100035.41;;;13.48
19568;BMP280;9930;49.240;8.548;2022-11-15T05:36:50;100020.91;;;13.48
19568;BMP280;9930;49.240;8.548;2022-11-15T05:39:18;100035.53;;;13.54
19568;BMP280;9930;49.240;8.548;2022-11-15T05:41:55;100023.50;;;13.50
19568;BMP280;9930;49.240;8.548;2022-11-15T05:44:23;100019.19;;;13.47
19568;BMP280;9930;49.240;8.548;2022-11-15T05:46:53;100014.94;;;13.49
19568;BMP280;9930;49.240;8.548;2022-11-15T05:49:25;100010.72;;;13.51
19568;BMP280;9930;49.240;8.548;2022-11-15T05:51:53;100021.94;;;13.58
19568;BMP280;9930;49.240;8.548;2022-11-15T05:54:21;100025.38;;;13.58
19568;BMP280;9930;49.240;8.548;2022-11-15T05:56:51;99999.44;;;13.42
19568;BMP280;9930;49.240;8.548;2022-11-15T05:59:17;100033.94;;;13.59
19568;BMP280;9930;49.240;8.548;2022-11-15T06:01:46;100037.38;;;13.61
19568;BMP280;9930;49.240;8.548;2022-11-15T06:04:16;100033.94;;;13.60
19568;BMP280;9930;49.240;8.548;2022-11-15T06:06:46;100036.53;;;13.60
19568;BMP280;9930;49.240;8.548;2022-11-15T06:09:18;100024.47;;;13.56
19568;BMP280;9930;49.240;8.548;2022-11-15T06:11:46;100037.31;;;13.58
19568;BMP280;9930;49.240;8.548;2022-11-15T06:14:15;100029.59;;;13.56
19568;BMP280;9930;49.240;8.548;2022-11-15T06:16:45;100026.16;;;13.54
19568;BMP280;9930;49.240;8.548;2022-11-15T06:19:15;100015.75;;;13.47
19568;BMP280;9930;49.240;8.548;2022-11-15T06:21:46;100027.75;;;13.49
19568;BMP280;9930;49.240;8.548;2022-11-15T06:24:18;100018.25;;;13.44
19568;BMP280;9930;49.240;8.548;2022-11-15T06:26:45;100033.69;;;13.47
19568;BMP280;9930;49.240;8.548;2022-11-15T06:29:15;100020.84;;;13.45
19568;BMP280;9930;49.240;8.548;2022-11-15T06:31:45;100019.97;;;13.45
19568;BMP280;9930;49.240;8.548;2022-11-15T06:34:15;100013.97;;;13.43
19568;BMP280;9930;49.240;8.548;2022-11-15T06:36:45;100016.50;;;13.41
19568;BMP280;9930;49.240;8.548;2022-11-15T06:39:20;100023.38;;;13.44
19568;BMP280;9930;49.240;8.548;2022-11-15T06:41:46;100016.56;;;13.44
19568;BMP280;9930;49.240;8.548;2022-11-15T06:44:16;100001.94;;;13.39
19568;BMP280;9930;49.240;8.548;2022-11-15T06:46:45;100003.66;;;13.40
19568;BMP280;9930;49.240;8.548;2022-11-15T06:49:16;100014.91;;;13.48
19568;BMP280;9930;49.240;8.548;2022-11-15T06:51:48;100000.19;;;13.38
19568;BMP280;9930;49.240;8.548;2022-11-15T06:54:20;100008.88;;;13.44
19568;BMP280;9930;49.240;8.548;2022-11-15T06:56:46;99993.44;;;13.41
19568;BMP280;9930;49.240;8.548;2022-11-15T06:59:15;100018.47;;;13.54
19568;BMP280;9930;49.240;8.548;2022-11-15T07:01:46;100014.09;;;13.49
19568;BMP280;9930;49.240;8.548;2022-11-15T07:04:15;100035.59;;;13.57
19568;BMP280;9930;49.240;8.548;2022-11-15T07:06:48;100031.41;;;13.60
19568;BMP280;9930;49.240;8.548;2022-11-15T07:09:16;100012.47;;;13.54
19568;BMP280;9930;49.240;8.548;2022-11-15T07:11:46;100027.13;;;13.61
19568;BMP280;9930;49.240;8.548;2022-11-15T07:14:15;100011.50;;;13.47
19568;BMP280;9930;49.240;8.548;2022-11-15T07:16:45;100029.75;;;13.64
19568;BMP280;9930;49.240;8.548;2022-11-15T07:19:13;100033.31;;;13.72
19568;BMP280;9930;49.240;8.548;2022-11-15T07:21:43;100022.19;;;13.70
19568;BMP280;9930;49.240;8.548;2022-11-15T07:24:18;100036.03;;;13.80
19568;BMP280;9930;49.240;8.548;2022-11-15T07:26:48;100032.66;;;13.82
19568;BMP280;9930;49.240;8.548;2022-11-15T07:29:16;100031.78;;;13.82
19568;BMP280;9930;49.240;8.548;2022-11-15T07:31:45;100027.50;;;13.81
19568;BMP280;9930;49.240;8.548;2022-11-15T07:34:15;100033.59;;;13.87
19568;BMP280;9930;49.240;8.548;2022-11-15T07:36:45;100039.69;;;13.92
19568;BMP280;9930;49.240;8.548;2022-11-15T07:39:16;100037.88;;;13.87
19568;BMP280;9930;49.240;8.548;2022-11-15T07:41:46;100047.44;;;13.96
19568;BMP280;9930;49.240;8.548;2022-11-15T07:44:16;100042.31;;;13.97
19568;BMP280;9930;49.240;8.548;2022-11-15T07:46:45;100037.16;;;13.94
19568;BMP280;9930;49.240;8.548;2022-11-15T07:49:19;100033.78;;;13.97
19568;BMP280;9930;49.240;8.548;2022-11-15T07:51:48;100051.81;;;14.03
19568;BMP280;9930;49.240;8.548;2022-11-15T07:54:19;100038.94;;;14.00
19568;BMP280;9930;49.240;8.548;2022-11-15T07:56:45;100041.66;;;14.07
19568;BMP280;9930;49.240;8.548;2022-11-15T07:59:18;100047.69;;;14.11
19568;BMP280;9930;49.240;8.548;2022-11-15T08:01:48;100040.03;;;14.12
19568;BMP280;9930;49.240;8.548;2022-11-15T08:04:15;100039.28;;;14.18
19568;BMP280;9930;49.240;8.548;2022-11-15T08:06:45;100042.75;;;14.21
19568;BMP280;9930;49.240;8.548;2022-11-15T08:09:17;100033.41;;;14.25
19568;BMP280;9930;49.240;8.548;2022-11-15T08:11:45;100025.75;;;14.26
19568;BMP280;9930;49.240;8.548;2022-11-15T08:14:14;100030.13;;;14.34
19568;BMP280;9930;49.240;8.548;2022-11-15T08:16:41;100013.00;;;14.31
19568;BMP280;9930;49.240;8.548;2022-11-15T08:19:10;100019.03;;;14.35
19568;BMP280;9930;49.240;8.548;2022-11-15T08:21:38;100016.63;;;14.42
19568;BMP280;9930;49.240;8.548;2022-11-15T08:24:04;100010.66;;;14.45
19568;BMP280;9930;49.240;8.548;2022-11-15T08:26:34;100016.81;;;14.54
19568;BMP280;9930;49.240;8.548;2022-11-15T08:29:00;100009.94;;;14.52
19568;BMP280;9930;49.240;8.548;2022-11-15T08:31:26;99999.72;;;14.55
19568;BMP280;9930;49.240;8.548;2022-11-15T08:33:52;100013.50;;;14.63
19568;BMP280;9930;49.240;8.548;2022-11-15T08:36:17;99992.97;;;14.62
19568;BMP280;9930;49.240;8.548;2022-11-15T08:38:45;100008.50;;;14.72
19568;BMP280;9930;49.240;8.548;2022-11-15T08:41:33;100004.28;;;14.76
19568;BMP280;9930;49.240;8.548;2022-11-15T08:44:02;99994.91;;;14.78
19568;BMP280;9930;49.240;8.548;2022-11-15T08:46:28;99996.66;;;14.82
19568;BMP280;9930;49.240;8.548;2022-11-15T08:48:54;100001.06;;;14.90
19568;BMP280;9930;49.240;8.548;2022-11-15T08:51:20;99996.84;;;14.96
19568;BMP280;9930;49.240;8.548;2022-11-15T08:53:46;100004.63;;;15.00
19568;BMP280;9930;49.240;8.548;2022-11-15T08:56:17;100005.53;;;15.05
19568;BMP280;9930;49.240;8.548;2022-11-15T08:58:47;100003.03;;;15.10
19568;BMP280;9930;49.240;8.548;2022-11-15T09:01:20;99990.22;;;15.11
19568;BMP280;9930;49.240;8.548;2022-11-15T09:03:47;99996.28;;;15.18
19568;BMP280;9930;49.240;8.548;2022-11-15T09:06:18;100016.19;;;15.34
19568;BMP280;9930;49.240;8.548;2022-11-15T09:08:45;100009.41;;;15.41
19568;BMP280;9930;49.240;8.548;2022-11-15T09:11:18;100006.91;;;15.47
19568;BMP280;9930;49.240;8.548;2022-11-15T09:13:47;100008.69;;;15.54
19568;BMP280;9930;49.240;8.548;2022-11-15T09:16:15;99999.28;;;15.54
19568;BMP280;9930;49.240;8.548;2022-11-15T09:18:44;100004.53;;;15.64
19568;BMP280;9930;49.240;8.548;2022-11-15T09:21:15;99993.41;;;15.66
19568;BMP280;9930;49.240;8.548;2022-11-15T09:23:45;99988.25;;;15.65
19568;BMP280;9930;49.240;8.548;2022-11-15T09:26:15;99993.50;;;15.75
19568;BMP280;9930;49.240;8.548;2022-11-15T09:28:45;99983.25;;;15.80
19568;BMP280;9930;49.240;8.548;2022-11-15T09:31:14;99988.38;;;15.78
19568;BMP280;9930;49.240;8.548;2022-11-15T09:33:45;100003.06;;;15.88
19568;BMP280;9930;49.240;8.548;2022-11-15T09:36:15;99988.50;;;15.91
19568;BMP280;9930;49.240;8.548;2022-11-15T09:38:48;99991.97;;;15.96
19568;BMP280;9930;49.240;8.548;2022-11-15T09:44:25;99988.63;;;16.06
19568;BMP280;9930;49.240;8.548;2022-11-15T09:49:44;99978.38;;;16.07
19568;BMP280;9930;49.240;8.548;2022-11-15T09:52:17;99968.97;;;16.11
19568;BMP280;9930;49.240;8.548;2022-11-15T09:54:49;99976.75;;;16.20
19568;BMP280;9930;49.240;8.548;2022-11-15T09:57:33;99978.50;;;16.24
19568;BMP280;9930;49.240;8.548;2022-11-15T10:03:17;99977.72;;;16.33
19568;BMP280;9930;49.240;8.548;2022-11-15T10:05:47;99970.03;;;16.37
19568;BMP280;9930;49.240;8.548;2022-11-15T10:11:11;99963.19;;;16.42
19568;BMP280;9930;49.240;8.548;2022-11-15T10:13:47;99964.94;;;16.49
19568;BMP280;9930;49.240;8.548;2022-11-15T10:19:23;99962.31;;;16.42
19568;BMP280;9930;49.240;8.548;2022-11-15T10:24:46;99966.66;;;16.49
19568;BMP280;9930;49.240;8.548;2022-11-15T10:27:17;99952.06;;;16.48
19568;BMP280;9930;49.240;8.548;2022-11-15T10:29:49;99942.59;;;16.42
19568;BMP280;9930;49.240;8.548;2022-11-15T10:32:21;99956.38;;;16.49
19568;BMP280;9930;49.240;8.548;2022-11-15T10:34:50;99951.22;;;16.49
19568;BMP280;9930;49.240;8.548;2022-11-15T10:37:31;99951.22;;;16.47
19568;BMP280;9930;49.240;8.548;2022-11-15T10:40:23;99935.75;;;16.44
19568;BMP280;9930;49.240;8.548;2022-11-15T10:43:16;99948.69;;;16.55
19568;BMP280;9930;49.240;8.548;2022-11-15T10:45:49;99943.53;;;16.57
19568;BMP280;9930;49.240;8.548;2022-11-15T10:50:51;99946.16;;;16.61
19568;BMP280;9930;49.240;8.548;2022-11-15T10:53:37;99938.44;;;16.63
19568;BMP280;9930;49.240;8.548;2022-11-15T10:56:15;99926.41;;;16.63
19568;BMP280;9930;49.240;8.548;2022-11-15T10:58:54;99934.19;;;16.69
19568;BMP280;9930;49.240;8.548;2022-11-15T11:01:28;99917.03;;;16.71
19568;BMP280;9930;49.240;8.548;2022-11-15T11:04:02;99905.91;;;16.74
19568;BMP280;9930;49.240;8.548;2022-11-15T11:06:29;99893.88;;;16.71
19568;BMP280;9930;49.240;8.548;2022-11-15T11:09:01;99890.44;;;16.74
19568;BMP280;9930;49.240;8.548;2022-11-15T11:11:48;99887.03;;;16.78
19568;BMP280;9930;49.240;8.548;2022-11-15T11:14:39;99892.22;;;16.87
19568;BMP280;9930;49.240;8.548;2022-11-15T11:17:13;99884.50;;;16.92
19568;BMP280;9930;49.240;8.548;2022-11-15T11:20:14;99870.78;;;16.91
19568;BMP280;9930;49.240;8.548;2022-11-15T11:23:20;99874.22;;;16.99
19568;BMP280;9930;49.240;8.548;2022-11-15T11:26:13;99870.81;;;17.03
19568;BMP280;9930;49.240;8.548;2022-11-15T11:44:25;99827.88;;;17.16
19568;BMP280;9930;49.240;8.548;2022-11-15T11:47:15;99827.91;;;17.19
19568;BMP280;9930;49.240;8.548;2022-11-15T11:49:58;99833.06;;;17.25
19568;BMP280;9930;49.240;8.548;2022-11-15T11:52:33;99821.03;;;17.24
19568;BMP280;9930;49.240;8.548;2022-11-15T11:55:12;99826.19;;;17.32
19568;BMP280;9930;49.240;8.548;2022-11-15T11:58:02;99817.59;;;17.36
19568;BMP280;9930;49.240;8.548;2022-11-15T12:00:34;99804.72;;;17.33
19568;BMP280;9930;49.240;8.548;2022-11-15T12:06:00;99800.41;;;17.41
19568;BMP280;9930;49.240;8.548;2022-11-15T12:08:46;99803.00;;;17.45
19568;BMP280;9930;49.240;8.548;2022-11-15T12:14:08;99796.13;;;17.51
19568;BMP280;9930;49.240;8.548;2022-11-15T12:16:45;99785.81;;;17.46
19568;BMP280;9930;49.240;8.548;2022-11-15T12:19:16;99790.97;;;17.52
19568;BMP280;9930;49.240;8.548;2022-11-15T12:21:52;99779.78;;;17.53
19568;BMP280;9930;49.240;8.548;2022-11-15T12:24:32;99775.50;;;17.54
19568;BMP280;9930;49.240;8.548;2022-11-15T12:29:49;99769.47;;;17.55
19568;BMP280;9930;49.240;8.548;2022-11-15T12:32:36;99775.50;;;17.52
19568;BMP280;9930;49.240;8.548;2022-11-15T12:35:42;99760.03;;;17.49
19568;BMP280;9930;49.240;8.548;2022-11-15T12:41:22;99755.72;;;17.46
19568;BMP280;9930;49.240;8.548;2022-11-15T12:43:49;99755.72;;;17.53
19568;BMP280;9930;49.240;8.548;2022-11-15T12:48:51;99719.66;;;17.36
19568;BMP280;9930;49.240;8.548;2022-11-15T12:59:50;99744.53;;;17.61
19568;BMP280;9930;49.240;8.548;2022-11-15T13:04:52;99725.63;;;17.64
19568;BMP280;9930;49.240;8.548;2022-11-15T13:15:37;99715.34;;;17.68
19568;BMP280;9930;49.240;8.548;2022-11-15T13:18:40;99711.03;;;17.67
19568;BMP280;9930;49.240;8.548;2022-11-15T13:21:21;99707.59;;;17.64
19568;BMP280;9930;49.240;8.548;2022-11-15T13:24:16;99701.56;;;17.72
19568;BMP280;9930;49.240;8.548;2022-11-15T13:26:46;99693.84;;;17.74
19568;BMP280;9930;49.240;8.548;2022-11-15T13:29:19;99690.38;;;17.79
19568;BMP280;9930;49.240;8.548;2022-11-15T13:31:48;99674.91;;;17.73
19568;BMP280;9930;49.240;8.548;2022-11-15T13:34:33;99680.91;;;17.78
19568;BMP280;9930;49.240;8.548;2022-11-15T13:37:02;99671.47;;;17.76
19568;BMP280;9930;49.240;8.548;2022-11-15T13:39:35;99671.44;;;17.82
19568;BMP280;9930;49.240;8.548;2022-11-15T13:42:17;99666.31;;;17.77
19568;BMP280;9930;49.240;8.548;2022-11-15T13:45:03;99661.13;;;17.80
19568;BMP280;9930;49.240;8.548;2022-11-15T13:47:32;99662.84;;;17.82
19568;BMP280;9930;49.240;8.548;2022-11-15T13:49:58;99651.69;;;17.78
19568;BMP280;9930;49.240;8.548;2022-11-15T13:52:33;99663.69;;;17.85
19568;BMP280;9930;49.240;8.548;2022-11-15T13:55:24;99647.38;;;17.83
19568;BMP280;9930;49.240;8.548;2022-11-15T13:58:02;99637.94;;;17.79
19568;BMP280;9930;49.240;8.548;2022-11-15T14:00:39;99642.22;;;17.83
19568;BMP280;9930;49.240;8.548;2022-11-15T14:03:27;99641.34;;;17.83
19568;BMP280;9930;49.240;8.548;2022-11-15T14:06:23;99619.91;;;17.74
19568;BMP280;9930;49.240;8.548;2022-11-15T14:11:34;99625.03;;;17.77
19568;BMP280;9930;49.240;8.548;2022-11-15T14:16:57;99613.88;;;17.75
19568;BMP280;9930;49.240;8.548;2022-11-15T14:22:18;99608.72;;;17.75
19568;BMP280;9930;49.240;8.548;2022-11-15T14:25:14;99614.75;;;17.74
19568;BMP280;9930;49.240;8.548;2022-11-15T14:30:51;99589.84;;;17.67
19568;BMP280;9930;49.240;8.548;2022-11-15T14:33:37;99589.81;;;17.72
19568;BMP280;9930;49.240;8.548;2022-11-15T14:36:11;99578.66;;;17.68
19568;BMP280;9930;49.240;8.548;2022-11-15T14:38:50;99570.06;;;17.69
19568;BMP280;9930;49.240;8.548;2022-11-15T14:41:24;99576.94;;;17.67
19568;BMP280;9930;49.240;8.548;2022-11-15T14:43:53;99572.63;;;17.65
19568;BMP280;9930;49.240;8.548;2022-11-15T14:46:21;99550.31;;;17.56
19568;BMP280;9930;49.240;8.548;2022-11-15T14:48:47;99552.03;;;17.59
19568;BMP280;9930;49.240;8.548;2022-11-15T14:51:17;99528.00;;;17.52
19568;BMP280;9930;49.240;8.548;2022-11-15T14:53:46;99518.53;;;17.56
19568;BMP280;9930;49.240;8.548;2022-11-15T14:56:16;99533.13;;;17.58
19568;BMP280;9930;49.240;8.548;2022-11-15T14:58:46;99541.72;;;17.56
19568;BMP280;9930;49.240;8.548;2022-11-15T15:01:25;99537.47;;;17.47
19568;BMP280;9930;49.240;8.548;2022-11-15T15:03:56;99543.47;;;17.51
19568;BMP280;9930;49.240;8.548;2022-11-15T15:06:24;99540.91;;;17.49
19568;BMP280;9930;49.240;8.548;2022-11-15T15:08:52;99536.63;;;17.46
19568;BMP280;9930;49.240;8.548;2022-11-15T15:11:23;99532.31;;;17.45
19568;BMP280;9930;49.240;8.548;2022-11-15T15:13:53;99532.31;;;17.44
19568;BMP280;9930;49.240;8.548;2022-11-15T15:16:24;99534.06;;;17.42
19568;BMP280;9930;49.240;8.548;2022-11-15T15:18:50;99518.63;;;17.36
19568;BMP280;9930;49.240;8.548;2022-11-15T15:21:25;99522.91;;;17.35
19568;BMP280;9930;49.240;8.548;2022-11-15T15:23:52;99516.03;;;17.34
19568;BMP280;9930;49.240;8.548;2022-11-15T15:26:25;99516.03;;;17.34
19568;BMP280;9930;49.240;8.548;2022-11-15T15:28:50;99505.78;;;17.27
19568;BMP280;9930;49.240;8.548;2022-11-15T15:31:18;99505.75;;;17.30
19568;BMP280;9930;49.240;8.548;2022-11-15T15:33:49;99495.50;;;17.21
19568;BMP280;9930;49.240;8.548;2022-11-15T15:36:18;99484.34;;;17.19
19568;BMP280;9930;49.240;8.548;2022-11-15T15:38:46;99499.78;;;17.23
19568;BMP280;9930;49.240;8.548;2022-11-15T15:41:17;99492.91;;;17.17
19568;BMP280;9930;49.240;8.548;2022-11-15T15:43:46;99487.78;;;17.13
19568;BMP280;9930;49.240;8.548;2022-11-15T15:46:18;99485.22;;;17.14
19568;BMP280;9930;49.240;8.548;2022-11-15T15:48:48;99480.91;;;17.13
19568;BMP280;9930;49.240;8.548;2022-11-15T15:51:16;99481.78;;;17.11
19568;BMP280;9930;49.240;8.548;2022-11-15T15:53:50;99475.78;;;17.06
19568;BMP280;9930;49.240;8.548;2022-11-15T15:56:18;99468.06;;;17.06
19568;BMP280;9930;49.240;8.548;2022-11-15T15:58:49;99456.94;;;16.99
19568;BMP280;9930;49.240;8.548;2022-11-15T16:01:21;99459.50;;;16.98
19568;BMP280;9930;49.240;8.548;2022-11-15T16:03:47;99451.78;;;16.95
19568;BMP280;9930;49.240;8.548;2022-11-15T16:06:40;99455.22;;;16.94
19568;BMP280;9930;49.240;8.548;2022-11-15T16:09:18;99462.94;;;16.98
19568;BMP280;9930;49.240;8.548;2022-11-15T16:11:51;99460.38;;;16.97
19568;BMP280;9930;49.240;8.548;2022-11-15T16:14:19;99454.38;;;16.95
19568;BMP280;9930;49.240;8.548;2022-11-15T16:16:47;99454.38;;;16.93
19568;BMP280;9930;49.240;8.548;2022-11-15T16:19:18;99439.78;;;16.92
19568;BMP280;9930;49.240;8.548;2022-11-15T16:21:46;99442.34;;;16.92
19568;BMP280;9930;49.240;8.548;2022-11-15T16:24:16;99434.66;;;16.86